Time;durP1;ratioP1;P1;durP2;ratioP2;P2;SDS_P1;SDS_P2;PMS_P1;PMS_P2;Temp;Humidity;BMP_temperature;BMP_pressure;BME280_temperature;BME280_humidity;BME280_pressure;Samples;Min_cycle;Max_cycle;Signal;HPM_P1;HPM_P2
2024/04/10 00:01:04;;;;;;;;;;;;;;;21.29;54.75;101304.56;2217142;26;5923;-65
2024/04/10 00:02:06;;;;;;;;;;;;;;;21.29;54.70;101316.09;2215399;26;2091;-65
2024/04/10 00:03:07;;;;;;;;;;;;;;;21.28;54.34;101311.72;2211502;26;2145;-65
2024/04/10 00:04:09;;;;;;;;;;;;;;;21.29;54.48;101315.34;2208872;26;2607;-65
2024/04/10 00:05:11;;;;;;;;;;;;;;;21.29;54.46;101316.09;2219211;26;2215;-65
2024/04/10 00:06:13;;;;;;;;;;;;;;;21.29;54.64;101309.56;2209117;26;2117;-65
2024/04/10 00:07:14;;;;;;;;;;;;;;;21.29;54.31;101318.22;2217703;26;2240;-65
2024/04/10 00:08:16;;;;;;;;;;;;;;;21.29;54.27;101316.09;2213438;26;2047;-65
2024/04/10 00:09:17;;;;;;;;;;;;;;;21.30;54.59;101311.06;2209733;26;2286;-65
2024/04/10 00:10:19;;;;;;;;;;;;;;;21.29;54.37;101318.22;2216823;26;2133;-65
2024/04/10 00:11:21;;;;;;;;;;;;;;;21.29;54.56;101321.84;2211329;26;2304;-65
2024/04/10 00:12:23;;;;;;;;;;;;;;;21.29;54.33;101321.09;2218274;26;2109;-65
2024/04/10 00:13:24;;;;;;;;;;;;;;;21.29;54.63;101313.19;2218744;26;2418;-65
2024/04/10 00:14:25;;;;;;;;;;;;;;;21.29;54.65;101321.09;2210075;26;2462;-65
2024/04/10 00:15:27;;;;;;;;;;;;;;;21.29;54.26;101321.09;2216687;26;2264;-65
2024/04/10 00:16:29;;;;;;;;;;;;;;;21.28;54.55;101320.38;2214599;26;2246;-65
2024/04/10 00:17:30;;;;;;;;;;;;;;;21.28;54.38;101323.25;2209574;26;2420;-65
2024/04/10 00:18:32;;;;;;;;;;;;;;;21.27;54.61;101321.75;2215700;26;2211;-65
2024/04/10 00:19:34;;;;;;;;;;;;;;;21.28;54.54;101319.59;2210981;26;2528;-65
2024/04/10 00:20:36;;;;;;;;;;;;;;;21.27;54.69;101313.09;2210072;26;2124;-65
2024/04/10 00:21:38;;;;;;;;;;;;;;;21.26;54.66;101300.09;2211101;26;2396;-65
2024/04/10 00:22:39;;;;;;;;;;;;;;;21.26;54.64;101302.97;2211388;26;2124;-65
2024/04/10 00:23:41;;;;;;;;;;;;;;;21.26;54.28;101308.72;2212577;26;2535;-65
2024/04/10 00:24:42;;;;;;;;;;;;;;;21.27;54.71;101295.81;2220010;26;2235;-65
2024/04/10 00:25:54;;;;;;;;;;;;;;;21.26;54.54;101308.72;2210537;26;2320;-67
2024/04/10 00:26:55;;;;;;;;;;;;;;;21.26;54.54;101305.84;2208377;26;2432;-65
2024/04/10 00:27:57;;;;;;;;;;;;;;;21.26;54.54;101300.09;2215105;26;2359;-65
2024/04/10 00:28:59;;;;;;;;;;;;;;;21.26;54.27;101308.00;2215024;26;2281;-65
2024/04/10 00:30:00;;;;;;;;;;;;;;;21.26;54.37;101305.84;2215621;26;2286;-65
2024/04/10 00:31:05;;;;;;;;;;;;;;;21.26;54.37;101311.63;2215516;26;6676;-65
2024/04/10 00:32:08;;;;;;;;;;;;;;;21.26;54.25;101317.38;2220124;26;2120;-65
2024/04/10 00:33:09;;;;;;;;;;;;;;;21.25;54.27;101310.09;2214480;26;2298;-65
2024/04/10 00:34:11;;;;;;;;;;;;;;;21.25;54.37;101310.09;2209025;26;2670;-66
2024/04/10 00:35:13;;;;;;;;;;;;;;;21.26;54.26;101313.75;2212531;26;2148;-65
2024/04/10 00:36:14;;;;;;;;;;;;;;;21.25;54.32;101304.34;2211931;26;2312;-65
2024/04/10 00:37:16;;;;;;;;;;;;;;;21.25;54.50;101310.09;2208815;26;2183;-65
2024/04/10 00:38:17;;;;;;;;;;;;;;;21.25;54.67;101307.22;2209987;26;2159;-65
2024/04/10 00:39:19;;;;;;;;;;;;;;;21.25;54.38;101318.00;2217870;26;2152;-65
2024/04/10 00:40:20;;;;;;;;;;;;;;;21.25;54.62;101315.13;2217096;26;2158;-65
2024/04/10 00:41:22;;;;;;;;;;;;;;;21.24;54.50;101319.41;2211857;26;2110;-65
2024/04/10 00:42:23;;;;;;;;;;;;;;;21.24;54.60;101320.16;2212930;26;2131;-65
2024/04/10 00:43:25;;;;;;;;;;;;;;;21.24;54.32;101314.38;2216394;26;2116;-65
2024/04/10 00:44:26;;;;;;;;;;;;;;;21.24;54.59;101320.16;2210455;26;2297;-65
2024/04/10 00:45:28;;;;;;;;;;;;;;;21.24;54.37;101331.69;2212914;26;2383;-65
2024/04/10 00:46:31;;;;;;;;;;;;;;;21.25;54.40;101332.41;2210947;26;2262;-65
2024/04/10 00:47:33;;;;;;;;;;;;;;;21.24;54.20;101328.78;2211527;26;2236;-65
2024/04/10 00:48:36;;;;;;;;;;;;;;;21.24;54.55;101336.69;2220716;26;2305;-65
2024/04/10 00:49:37;;;;;;;;;;;;;;;21.23;54.31;101330.16;2209724;26;2273;-65
2024/04/10 00:50:39;;;;;;;;;;;;;;;21.24;54.17;101331.69;2215085;26;2129;-65
2024/04/10 00:51:42;;;;;;;;;;;;;;;21.24;54.31;101342.47;2210750;26;2417;-65
2024/04/10 00:52:43;;;;;;;;;;;;;;;21.23;54.23;101340.94;2214467;26;2341;-65
2024/04/10 00:53:45;;;;;;;;;;;;;;;21.23;54.49;101341.69;2212777;26;2538;-65
2024/04/10 00:54:47;;;;;;;;;;;;;;;21.23;54.35;101341.69;2211969;26;2192;-65
2024/04/10 00:55:49;;;;;;;;;;;;;;;21.23;54.24;101335.94;2209846;26;2328;-65
2024/04/10 00:56:50;;;;;;;;;;;;;;;21.22;54.51;101345.97;2214618;26;2266;-65
2024/04/10 00:57:52;;;;;;;;;;;;;;;21.23;54.30;101347.44;2211218;26;2428;-65
2024/04/10 00:58:56;;;;;;;;;;;;;;;21.22;54.67;101340.22;2212877;26;2219;-65
2024/04/10 00:59:57;;;;;;;;;;;;;;;21.23;54.30;101355.34;2216120;26;2277;-65
2024/04/10 01:00:59;;;;;;;;;;;;;;;21.23;54.28;101364.00;2209599;26;5857;-65
2024/04/10 01:02:03;;;;;;;;;;;;;;;21.22;54.29;101363.25;2213773;26;2189;-65
2024/04/10 01:03:05;;;;;;;;;;;;;;;21.22;54.46;101369.00;2209167;26;2555;-65
2024/04/10 01:04:07;;;;;;;;;;;;;;;21.21;54.62;101358.13;2211626;26;2205;-65
2024/04/10 01:05:09;;;;;;;;;;;;;;;21.22;54.13;101368.28;2209787;26;2286;-65
2024/04/10 01:06:10;;;;;;;;;;;;;;;21.22;54.70;101376.91;2213182;26;2121;-65
2024/04/10 01:07:13;;;;;;;;;;;;;;;21.21;54.50;101367.53;2214091;26;2364;-65
2024/04/10 01:08:14;;;;;;;;;;;;;;;21.21;54.61;101366.75;2217707;26;2644;-65
2024/04/10 01:09:15;;;;;;;;;;;;;;;21.21;54.33;101358.13;2208265;26;2515;-65
2024/04/10 01:10:17;;;;;;;;;;;;;;;21.21;54.65;101356.00;2217956;26;2201;-65
2024/04/10 01:11:18;;;;;;;;;;;;;;;21.21;54.17;101366.75;2209805;26;2195;-65
2024/04/10 01:12:20;;;;;;;;;;;;;;;21.20;54.14;101366.03;2210269;26;2390;-65
2024/04/10 01:13:22;;;;;;;;;;;;;;;21.21;54.51;101384.03;2210682;26;2519;-68
2024/04/10 01:14:24;;;;;;;;;;;;;;;21.21;54.31;101378.28;2211612;26;2272;-76
2024/04/10 01:15:25;;;;;;;;;;;;;;;21.20;54.64;101383.31;2212821;26;2516;-71
2024/04/10 01:16:27;;;;;;;;;;;;;;;21.20;54.17;101386.19;2212544;26;2253;-76
2024/04/10 01:17:28;;;;;;;;;;;;;;;21.20;54.50;101388.31;2210032;26;2295;-68
2024/04/10 01:18:30;;;;;;;;;;;;;;;21.20;54.40;101389.06;2209072;26;2637;-67
2024/04/10 01:19:32;;;;;;;;;;;;;;;21.20;54.43;101389.06;2218802;26;2306;-67
2024/04/10 01:20:33;;;;;;;;;;;;;;;21.20;54.24;101388.31;2208491;26;2271;-67
2024/04/10 01:21:35;;;;;;;;;;;;;;;21.20;54.65;101383.31;2213943;26;2111;-67
2024/04/10 01:22:36;;;;;;;;;;;;;;;21.20;54.22;101394.81;2215686;26;2207;-67
2024/04/10 01:23:38;;;;;;;;;;;;;;;21.21;54.07;101389.81;2209959;26;2498;-68
2024/04/10 01:24:39;;;;;;;;;;;;;;;21.20;54.50;101391.94;2214210;26;2253;-67
2024/04/10 01:25:41;;;;;;;;;;;;;;;21.20;54.19;101388.31;2216218;26;2215;-67
2024/04/10 01:26:42;;;;;;;;;;;;;;;21.19;54.50;101387.59;2208013;26;2268;-68
2024/04/10 01:27:44;;;;;;;;;;;;;;;21.19;54.22;101389.69;2208682;26;2200;-67
2024/04/10 01:28:47;;;;;;;;;;;;;;;21.19;54.42;101399.09;2213025;26;2656;-67
2024/04/10 01:29:48;;;;;;;;;;;;;;;21.19;54.28;101396.22;2217662;26;2072;-67
2024/04/10 01:30:50;;;;;;;;;;;;;;;21.18;54.49;101400.47;2214852;26;6027;-67
2024/04/10 01:31:51;;;;;;;;;;;;;;;21.19;54.01;101413.50;2211614;26;2369;-67
2024/04/10 01:32:53;;;;;;;;;;;;;;;21.18;54.14;101414.88;2211349;26;2188;-68
2024/04/10 01:33:54;;;;;;;;;;;;;;;21.19;54.14;101406.97;2209961;26;2315;-67
2024/04/10 01:34:56;;;;;;;;;;;;;;;21.18;54.16;101412.00;2208425;26;2188;-67
2024/04/10 01:35:58;;;;;;;;;;;;;;;21.18;54.38;101405.50;2211704;26;2201;-68
2024/04/10 01:36:59;;;;;;;;;;;;;;;21.19;54.37;101404.88;2213624;26;2331;-67
2024/04/10 01:38:00;;;;;;;;;;;;;;;21.17;54.53;101401.88;2210794;26;2296;-67
2024/04/10 01:39:02;;;;;;;;;;;;;;;21.17;54.12;101401.88;2213290;26;2716;-67
2024/04/10 01:40:04;;;;;;;;;;;;;;;21.18;54.06;101402.63;2215637;26;2207;-67
2024/04/10 01:41:06;;;;;;;;;;;;;;;21.18;54.47;101397.59;2209204;26;2092;-67
2024/04/10 01:42:08;;;;;;;;;;;;;;;21.17;54.31;101399.00;2209825;26;2264;-68
2024/04/10 01:43:09;;;;;;;;;;;;;;;21.17;54.04;101390.34;2213152;26;2214;-67
2024/04/10 01:44:11;;;;;;;;;;;;;;;21.18;54.29;101391.09;2212084;26;2157;-67
2024/04/10 01:45:12;;;;;;;;;;;;;;;21.17;54.55;101396.13;2215226;26;2196;-67
2024/04/10 01:46:14;;;;;;;;;;;;;;;21.17;54.16;101396.13;2210263;26;2004;-68
2024/04/10 01:47:15;;;;;;;;;;;;;;;21.17;54.53;101390.34;2214873;26;2102;-67
2024/04/10 01:48:17;;;;;;;;;;;;;;;21.17;54.15;101393.25;2214472;26;2258;-67
2024/04/10 01:49:19;;;;;;;;;;;;;;;21.17;54.30;101390.34;2211293;26;2529;-68
2024/04/10 01:50:20;;;;;;;;;;;;;;;21.17;54.21;101384.59;2212079;26;2414;-67
2024/04/10 01:51:22;;;;;;;;;;;;;;;21.16;54.17;101383.09;2215165;26;2380;-68
2024/04/10 01:52:23;;;;;;;;;;;;;;;21.16;54.48;101385.97;2214489;26;2303;-67
2024/04/10 01:53:25;;;;;;;;;;;;;;;21.16;54.39;101383.09;2216942;26;2409;-67
2024/04/10 01:54:26;;;;;;;;;;;;;;;21.16;54.41;101388.84;2212178;26;2192;-67
2024/04/10 01:55:28;;;;;;;;;;;;;;;21.16;54.29;101388.84;2210823;26;2111;-68
2024/04/10 01:56:29;;;;;;;;;;;;;;;21.16;53.98;101400.38;2215919;26;2160;-67
2024/04/10 01:57:31;;;;;;;;;;;;;;;21.16;54.39;101400.38;2213489;26;2327;-67
2024/04/10 01:58:33;;;;;;;;;;;;;;;21.16;54.28;101406.13;2209449;26;2247;-67
2024/04/10 01:59:35;;;;;;;;;;;;;;;21.16;54.36;101400.38;2214499;26;2653;-67
2024/04/10 02:00:37;;;;;;;;;;;;;;;21.15;54.42;101410.41;2208846;26;5987;-67
2024/04/10 02:01:39;;;;;;;;;;;;;;;21.15;54.51;101413.28;2210394;26;2344;-67
2024/04/10 02:02:40;;;;;;;;;;;;;;;21.13;54.21;101413.19;2212973;26;2136;-67
2024/04/10 02:03:42;;;;;;;;;;;;;;;21.15;54.41;101424.06;2210983;26;2348;-67
2024/04/10 02:04:43;;;;;;;;;;;;;;;21.15;54.12;101421.94;2208686;26;2429;-67
2024/04/10 02:05:45;;;;;;;;;;;;;;;21.15;54.49;101433.44;2214819;26;2160;-68
2024/04/10 02:06:47;;;;;;;;;;;;;;;21.15;54.48;101427.69;2211954;26;2435;-67
2024/04/10 02:07:48;;;;;;;;;;;;;;;21.16;54.00;101425.56;2211432;26;2194;-68
2024/04/10 02:08:50;;;;;;;;;;;;;;;21.16;54.38;101429.19;2214866;26;2441;-67
2024/04/10 02:09:51;;;;;;;;;;;;;;;21.15;54.08;101429.84;2216707;26;2134;-68
2024/04/10 02:10:59;;;;;;;;;;;;;;;21.14;54.45;101437.69;2209109;26;2015;-67
2024/04/10 02:12:02;;;;;;;;;;;;;;;21.14;54.46;101437.69;2213081;26;2229;-67
2024/04/10 02:13:04;;;;;;;;;;;;;;;21.13;54.17;101439.09;2212810;26;2280;-67
2024/04/10 02:14:06;;;;;;;;;;;;;;;21.14;54.23;101443.47;2214661;26;2380;-68
2024/04/10 02:15:08;;;;;;;;;;;;;;;21.13;54.17;101442.72;2211062;26;2633;-68
2024/04/10 02:16:10;;;;;;;;;;;;;;;21.13;54.07;101447.75;2213383;26;2568;-67
2024/04/10 02:17:11;;;;;;;;;;;;;;;21.13;54.17;101441.97;2214310;26;2158;-67
2024/04/10 02:18:14;;;;;;;;;;;;;;;21.13;54.40;101441.97;2213623;26;2249;-68
2024/04/10 02:19:15;;;;;;;;;;;;;;;21.12;54.42;101434.75;2214545;26;2121;-68
2024/04/10 02:20:18;;;;;;;;;;;;;;;21.12;54.05;101440.50;2207647;26;2428;-67
2024/04/10 02:21:19;;;;;;;;;;;;;;;21.13;54.41;101433.34;2215562;26;2537;-67
2024/04/10 02:22:21;;;;;;;;;;;;;;;21.12;54.41;101434.75;2214028;26;2065;-68
2024/04/10 02:23:22;;;;;;;;;;;;;;;21.12;54.05;101440.50;2210074;26;2307;-67
2024/04/10 02:24:24;;;;;;;;;;;;;;;21.11;54.05;101436.13;2212315;26;2054;-67
2024/04/10 02:25:25;;;;;;;;;;;;;;;21.11;53.99;101439.00;2210298;26;2177;-68
2024/04/10 02:26:27;;;;;;;;;;;;;;;21.12;53.97;101431.88;2215250;26;2635;-68
2024/04/10 02:27:28;;;;;;;;;;;;;;;21.12;54.42;101440.50;2219720;26;2188;-68
2024/04/10 02:28:30;;;;;;;;;;;;;;;21.11;54.45;101439.72;2210554;26;2462;-67
2024/04/10 02:29:31;;;;;;;;;;;;;;;21.11;54.28;101439.00;2220057;26;2236;-67
2024/04/10 02:30:33;;;;;;;;;;;;;;;21.10;54.34;101440.41;2211009;26;6365;-67
2024/04/10 02:31:35;;;;;;;;;;;;;;;21.11;54.42;101447.63;2219741;26;2172;-68
2024/04/10 02:32:36;;;;;;;;;;;;;;;21.10;54.45;101443.28;2210773;26;2300;-67
2024/04/10 02:33:38;;;;;;;;;;;;;;;21.10;54.06;101446.16;2219679;26;2160;-67
2024/04/10 02:34:40;;;;;;;;;;;;;;;21.09;54.25;101436.00;2211031;26;2464;-67
2024/04/10 02:35:41;;;;;;;;;;;;;;;21.09;54.19;101447.53;2216859;26;2648;-67
2024/04/10 02:36:43;;;;;;;;;;;;;;;21.09;54.15;101444.66;2210944;26;2338;-67
2024/04/10 02:37:45;;;;;;;;;;;;;;;21.09;54.22;101441.75;2213192;26;2022;-67
2024/04/10 02:38:46;;;;;;;;;;;;;;;21.10;54.26;101449.03;2211852;26;2205;-67
2024/04/10 02:39:48;;;;;;;;;;;;;;;21.10;54.28;101454.78;2215801;26;2107;-68
2024/04/10 02:40:49;;;;;;;;;;;;;;;21.10;54.11;101443.28;2212397;26;2130;-67
2024/04/10 02:41:51;;;;;;;;;;;;;;;21.13;54.08;101447.75;2209404;26;2527;-67
2024/04/10 02:43:04;;;;;;;;;;;;;;;21.13;54.05;101450.63;2213598;26;2373;-68
2024/04/10 02:44:05;;;;;;;;;;;;;;;21.15;54.03;101450.00;2213537;26;2302;-67
2024/04/10 02:45:07;;;;;;;;;;;;;;;21.15;53.80;101450.72;2214485;26;2306;-68
2024/04/10 02:46:08;;;;;;;;;;;;;;;21.16;54.08;101449.34;2210534;26;2262;-68
2024/04/10 02:47:10;;;;;;;;;;;;;;;21.17;53.71;101453.72;2211581;26;2188;-68
2024/04/10 02:48:11;;;;;;;;;;;;;;;21.17;53.95;101450.84;2216083;26;2590;-68
2024/04/10 02:49:13;;;;;;;;;;;;;;;21.18;54.24;101460.22;2210260;26;2131;-68
2024/04/10 02:50:14;;;;;;;;;;;;;;;21.18;53.84;101460.97;2212347;26;2647;-68
2024/04/10 02:51:16;;;;;;;;;;;;;;;21.19;53.91;101456.72;2210241;26;2087;-68
2024/04/10 02:52:18;;;;;;;;;;;;;;;21.18;54.23;101460.22;2217542;26;2329;-67
2024/04/10 02:53:19;;;;;;;;;;;;;;;21.19;54.07;101462.47;2216616;26;2419;-68
2024/04/10 02:54:21;;;;;;;;;;;;;;;21.19;54.21;101465.34;2210820;26;2417;-68
2024/04/10 02:55:24;;;;;;;;;;;;;;;21.20;53.80;101458.19;2211604;26;2189;-67
2024/04/10 02:56:25;;;;;;;;;;;;;;;21.20;53.84;101463.94;2213858;26;2244;-67
2024/04/10 02:57:27;;;;;;;;;;;;;;;21.20;54.19;101469.72;2218889;26;2176;-67
2024/04/10 02:58:28;;;;;;;;;;;;;;;21.21;53.83;101468.34;2211097;26;2303;-68
2024/04/10 02:59:29;;;;;;;;;;;;;;;21.20;53.92;101466.84;2220674;26;1930;-67
2024/04/10 03:00:31;;;;;;;;;;;;;;;21.20;53.62;101475.47;2219535;26;6090;-68
2024/04/10 03:01:32;;;;;;;;;;;;;;;21.21;53.98;101476.97;2210932;26;2523;-67
2024/04/10 03:02:34;;;;;;;;;;;;;;;21.21;53.81;101482.75;2219700;26;2117;-67
2024/04/10 03:03:35;;;;;;;;;;;;;;;21.22;54.09;101487.09;2209071;26;2112;-67
2024/04/10 03:04:37;;;;;;;;;;;;;;;21.21;53.80;101484.84;2218792;26;2314;-68
2024/04/10 03:05:39;;;;;;;;;;;;;;;21.22;53.95;101492.13;2211315;26;2581;-67
2024/04/10 03:06:42;;;;;;;;;;;;;;;21.21;54.17;101494.25;2210539;26;2113;-67
2024/04/10 03:07:44;;;;;;;;;;;;;;;21.21;53.94;101500.03;2216043;26;2172;-67
2024/04/10 03:08:46;;;;;;;;;;;;;;;21.22;53.96;101500.75;2209041;26;2524;-68
2024/04/10 03:09:47;;;;;;;;;;;;;;;21.21;54.01;101505.78;2211849;26;2299;-67
2024/04/10 03:10:48;;;;;;;;;;;;;;;21.21;53.77;101508.66;2214297;26;2588;-68
2024/04/10 03:11:50;;;;;;;;;;;;;;;21.21;53.65;101516.53;2208312;26;2463;-68
2024/04/10 03:12:52;;;;;;;;;;;;;;;21.20;53.89;101512.91;2212132;26;2273;-67
2024/04/10 03:13:53;;;;;;;;;;;;;;;21.20;53.71;101518.69;2208794;26;2250;-67
2024/04/10 03:14:55;;;;;;;;;;;;;;;21.20;54.02;101521.56;2216387;26;2124;-67
2024/04/10 03:15:56;;;;;;;;;;;;;;;21.21;53.85;101513.66;2213013;26;2447;-67
2024/04/10 03:16:58;;;;;;;;;;;;;;;21.20;53.91;101518.69;2209806;26;2299;-67
2024/04/10 03:17:59;;;;;;;;;;;;;;;21.20;54.11;101521.56;2210232;26;2178;-67
2024/04/10 03:19:01;;;;;;;;;;;;;;;21.20;53.94;101526.56;2214386;26;2286;-67
2024/04/10 03:20:03;;;;;;;;;;;;;;;21.19;54.05;101519.31;2215834;26;2652;-67
2024/04/10 03:21:05;;;;;;;;;;;;;;;21.20;53.58;101520.81;2213026;26;2100;-67
2024/04/10 03:22:08;;;;;;;;;;;;;;;21.20;53.80;101520.81;2208330;26;2650;-67
2024/04/10 03:23:09;;;;;;;;;;;;;;;21.19;53.94;101531.59;2210162;26;2268;-67
2024/04/10 03:24:11;;;;;;;;;;;;;;;21.19;53.72;101537.34;2213364;26;2971;-68
2024/04/10 03:25:13;;;;;;;;;;;;;;;21.19;54.02;101533.72;2217620;26;2177;-67
2024/04/10 03:26:14;;;;;;;;;;;;;;;21.20;54.13;101532.34;2211569;26;2205;-67
2024/04/10 03:27:16;;;;;;;;;;;;;;;21.19;53.86;101525.84;2213064;26;2279;-67
2024/04/10 03:28:18;;;;;;;;;;;;;;;21.19;53.69;101531.59;2218553;26;3158;-67
2024/04/10 03:29:20;;;;;;;;;;;;;;;21.19;53.97;101531.59;2217874;26;2277;-67
2024/04/10 03:30:21;;;;;;;;;;;;;;;21.19;53.63;101528.72;2210851;26;5996;-67
2024/04/10 03:31:23;;;;;;;;;;;;;;;21.18;53.69;101535.84;2210391;26;2340;-68
2024/04/10 03:32:26;;;;;;;;;;;;;;;21.19;53.82;101536.59;2213011;26;2123;-67
2024/04/10 03:33:27;;;;;;;;;;;;;;;21.18;53.53;101544.50;2211510;26;2329;-67
2024/04/10 03:34:29;;;;;;;;;;;;;;;21.18;53.79;101541.59;2213460;26;2127;-67
2024/04/10 03:35:30;;;;;;;;;;;;;;;21.18;54.14;101540.88;2216714;26;2377;-67
2024/04/10 03:36:34;;;;;;;;;;;;;;;21.17;53.90;101539.38;2210935;26;2686;-67
2024/04/10 03:37:36;;;;;;;;;;;;;;;21.16;53.72;101537.88;2214421;26;2401;-67
2024/04/10 03:38:37;;;;;;;;;;;;;;;21.17;53.75;101545.88;2213962;26;2551;-67
2024/04/10 03:39:38;;;;;;;;;;;;;;;21.17;53.81;101545.88;2208407;26;2156;-67
2024/04/10 03:40:41;;;;;;;;;;;;;;;21.17;54.11;101551.66;2217670;26;2145;-67
2024/04/10 03:41:42;;;;;;;;;;;;;;;21.17;53.78;101556.66;2214063;26;2491;-67
2024/04/10 03:42:44;;;;;;;;;;;;;;;21.15;53.74;101554.41;2213710;26;2095;-67
2024/04/10 03:43:45;;;;;;;;;;;;;;;21.18;53.67;101558.16;2210933;26;2331;-67
2024/04/10 03:44:47;;;;;;;;;;;;;;;21.16;53.67;101567.41;2209247;26;2192;-67
2024/04/10 03:45:49;;;;;;;;;;;;;;;21.16;54.06;101558.78;2207833;26;2123;-68
2024/04/10 03:46:50;;;;;;;;;;;;;;;21.16;54.09;101573.19;2212894;26;2530;-68
2024/04/10 03:47:52;;;;;;;;;;;;;;;21.16;54.10;101573.19;2209410;26;2335;-67
2024/04/10 03:48:54;;;;;;;;;;;;;;;21.16;53.86;101573.19;2217144;26;2633;-67
2024/04/10 03:49:56;;;;;;;;;;;;;;;21.16;54.08;101573.19;2210066;26;2170;-67
2024/04/10 03:51:00;;;;;;;;;;;;;;;21.15;53.70;101571.69;2211505;26;2633;-67
2024/04/10 03:52:02;;;;;;;;;;;;;;;21.16;53.66;101569.56;2212451;26;2265;-67
2024/04/10 03:53:03;;;;;;;;;;;;;;;21.16;53.98;101578.19;2211383;26;2128;-67
2024/04/10 03:54:05;;;;;;;;;;;;;;;21.15;53.74;101577.44;2212149;26;2254;-67
2024/04/10 03:55:06;;;;;;;;;;;;;;;21.15;53.97;101580.34;2209607;26;2115;-67
2024/04/10 03:56:07;;;;;;;;;;;;;;;21.16;53.59;101578.94;2211299;26;2433;-67
2024/04/10 03:57:09;;;;;;;;;;;;;;;21.16;53.68;101576.06;2211166;26;2671;-67
2024/04/10 03:58:10;;;;;;;;;;;;;;;21.15;53.79;101586.09;2210829;26;2433;-67
2024/04/10 03:59:12;;;;;;;;;;;;;;;21.15;53.81;101583.22;2211586;26;2570;-67
2024/04/10 04:00:14;;;;;;;;;;;;;;;21.14;54.03;101587.47;2212016;26;5970;-67
2024/04/10 04:01:15;;;;;;;;;;;;;;;21.13;53.91;101578.09;2209290;26;2623;-67
2024/04/10 04:02:17;;;;;;;;;;;;;;;21.14;54.03;101578.81;2211117;26;2335;-67
2024/04/10 04:03:19;;;;;;;;;;;;;;;21.14;53.97;101587.47;2211930;26;2423;-67
2024/04/10 04:04:21;;;;;;;;;;;;;;;21.13;53.78;101586.72;2213672;26;2424;-67
2024/04/10 04:05:22;;;;;;;;;;;;;;;21.13;54.11;101591.75;2212260;26;2813;-67
2024/04/10 04:06:24;;;;;;;;;;;;;;;21.14;53.77;101590.34;2216149;26;2685;-67
2024/04/10 04:07:25;;;;;;;;;;;;;;;21.13;54.19;101597.50;2218081;26;2123;-67
2024/04/10 04:08:27;;;;;;;;;;;;;;;21.13;53.74;101592.47;2211436;26;2224;-67
2024/04/10 04:09:28;;;;;;;;;;;;;;;21.14;54.08;101601.88;2210139;26;2324;-67
2024/04/10 04:10:30;;;;;;;;;;;;;;;21.13;53.63;101594.63;2214353;26;2033;-67
2024/04/10 04:11:31;;;;;;;;;;;;;;;21.11;53.77;101600.25;2210323;26;2302;-67
2024/04/10 04:12:33;;;;;;;;;;;;;;;21.13;53.80;101603.25;2211542;26;2076;-67
2024/04/10 04:13:37;;;;;;;;;;;;;;;21.12;54.11;101593.13;2205925;26;2727;-67
2024/04/10 04:14:39;;;;;;;;;;;;;;;21.11;54.15;101601.00;2212349;26;2064;-67
2024/04/10 04:15:40;;;;;;;;;;;;;;;21.12;53.55;101599.63;2212445;26;2212;-67
2024/04/10 04:16:42;;;;;;;;;;;;;;;21.12;54.15;101601.78;2214919;26;2212;-67
2024/04/10 04:17:45;;;;;;;;;;;;;;;21.12;53.57;101602.50;2213025;26;2430;-67
2024/04/10 04:18:47;;;;;;;;;;;;;;;21.12;54.17;101607.53;2213635;26;2428;-67
2024/04/10 04:19:48;;;;;;;;;;;;;;;21.11;54.24;101606.75;2217669;26;2171;-67
2024/04/10 04:20:50;;;;;;;;;;;;;;;21.12;54.03;101614.03;2216222;26;2160;-67
2024/04/10 04:21:51;;;;;;;;;;;;;;;21.12;53.75;101624.81;2210893;26;2300;-67
2024/04/10 04:22:53;;;;;;;;;;;;;;;21.11;54.14;101611.78;2212126;26;2174;-68
2024/04/10 04:23:54;;;;;;;;;;;;;;;21.11;54.29;101623.31;2209220;26;2156;-67
2024/04/10 04:24:56;;;;;;;;;;;;;;;21.10;54.10;101627.56;2212121;26;2084;-67
2024/04/10 04:25:57;;;;;;;;;;;;;;;21.10;54.12;101630.47;2213291;26;2654;-67
2024/04/10 04:26:59;;;;;;;;;;;;;;;21.10;54.01;101636.22;2212764;26;2256;-67
2024/04/10 04:28:00;;;;;;;;;;;;;;;21.10;53.96;101627.56;2217546;26;2125;-67
2024/04/10 04:29:02;;;;;;;;;;;;;;;21.10;54.29;101624.69;2208954;26;2301;-67
2024/04/10 04:30:04;;;;;;;;;;;;;;;21.10;54.31;101627.56;2208240;26;6618;-67
2024/04/10 04:31:05;;;;;;;;;;;;;;;21.09;54.34;101631.81;2210956;26;2235;-67
2024/04/10 04:32:07;;;;;;;;;;;;;;;21.09;54.16;101631.81;2210802;26;2167;-67
2024/04/10 04:33:08;;;;;;;;;;;;;;;21.07;54.03;101629.59;2216111;26;2203;-67
2024/04/10 04:34:12;;;;;;;;;;;;;;;21.09;54.33;101638.34;2214457;26;2392;-73
2024/04/10 04:35:14;;;;;;;;;;;;;;;20.97;53.61;101639.78;2215844;26;2106;-72
2024/04/10 04:36:16;;;;;;;;;;;;;;;20.75;51.77;101634.25;2214529;26;2610;-70
2024/04/10 04:37:17;;;;;;;;;;;;;;;20.45;50.28;101645.47;2213865;26;2374;-76
2024/04/10 04:38:18;;;;;;;;;;;;;;;20.21;48.60;101646.94;2219557;26;2463;-72
2024/04/10 04:39:20;;;;;;;;;;;;;;;20.23;48.21;101650.69;2214877;26;2304;-72
2024/04/10 04:40:21;;;;;;;;;;;;;;;20.06;46.47;101648.94;2213694;26;2598;-72
2024/04/10 04:41:23;;;;;;;;;;;;;;;19.95;45.62;101652.59;2210000;26;2063;-73
2024/04/10 04:42:25;;;;;;;;;;;;;;;19.98;45.37;101656.34;2211921;26;2214;-72
2024/04/10 04:43:26;;;;;;;;;;;;;;;19.98;45.16;101654.22;2210263;26;2511;-75
2024/04/10 04:44:27;;;;;;;;;;;;;;;19.86;44.74;101659.22;2216500;26;2170;-72
2024/04/10 04:45:29;;;;;;;;;;;;;;;19.78;44.43;101661.59;2209791;26;2347;-72
2024/04/10 04:46:31;;;;;;;;;;;;;;;19.78;43.92;101665.22;2213871;26;2134;-72
2024/04/10 04:47:32;;;;;;;;;;;;;;;19.78;43.45;101675.97;2211851;26;2346;-72
2024/04/10 04:48:34;;;;;;;;;;;;;;;19.76;43.97;101670.09;2209559;26;2336;-66
2024/04/10 04:49:37;;;;;;;;;;;;;;;19.90;44.03;101675.97;2211275;26;2212;-66
2024/04/10 04:50:41;;;;;;;;;;;;;;;20.01;44.42;101675.94;2210145;26;2315;-66
2024/04/10 04:51:43;;;;;;;;;;;;;;;20.18;44.03;101676.94;2220158;26;2216;-66
2024/04/10 04:52:45;;;;;;;;;;;;;;;20.30;44.15;101683.44;2210255;26;2162;-66
2024/04/10 04:53:46;;;;;;;;;;;;;;;20.41;43.98;101676.13;2209812;26;1980;-66
2024/04/10 04:54:48;;;;;;;;;;;;;;;20.49;44.11;101683.13;2215258;26;2325;-66
2024/04/10 04:55:49;;;;;;;;;;;;;;;20.57;44.10;101690.75;2211908;26;2277;-66
2024/04/10 04:56:51;;;;;;;;;;;;;;;20.63;43.96;101691.13;2217487;26;2199;-66
2024/04/10 04:57:53;;;;;;;;;;;;;;;20.68;44.31;101704.38;2213136;26;2452;-66
2024/04/10 04:58:55;;;;;;;;;;;;;;;20.73;44.61;101694.59;2212541;26;2207;-66
2024/04/10 04:59:56;;;;;;;;;;;;;;;20.75;45.24;101700.44;2208250;26;2391;-66
2024/04/10 05:00:58;;;;;;;;;;;;;;;20.79;44.69;101703.56;2213500;26;5839;-66
2024/04/10 05:02:00;;;;;;;;;;;;;;;20.80;45.01;101704.31;2208725;26;2315;-66
2024/04/10 05:03:06;;;;;;;;;;;;;;;20.82;45.17;101701.56;2211059;26;2112;-66
2024/04/10 05:05:27;;;;;;;;;;;;;;;20.84;46.18;101713.19;2212875;26;2115;-66
2024/04/10 05:06:29;;;;;;;;;;;;;;;20.84;45.68;101719.69;2211107;26;2276;-66
2024/04/10 05:07:31;;;;;;;;;;;;;;;20.86;45.91;101727.72;2210283;26;2306;-67
2024/04/10 05:08:33;;;;;;;;;;;;;;;20.86;46.33;101716.19;2213917;26;2113;-66
2024/04/10 05:09:34;;;;;;;;;;;;;;;20.88;46.73;101722.06;2213654;26;2451;-66
2024/04/10 05:10:37;;;;;;;;;;;;;;;20.87;46.41;101727.09;2214717;26;2152;-67
2024/04/10 05:11:39;;;;;;;;;;;;;;;20.88;46.86;101728.56;2211635;26;2234;-66
2024/04/10 05:12:41;;;;;;;;;;;;;;;20.88;46.88;101727.84;2219624;26;2294;-66
2024/04/10 05:13:42;;;;;;;;;;;;;;;20.88;46.90;101727.84;2210148;26;2264;-66
2024/04/10 05:14:50;;;;;;;;;;;;;;;20.88;46.82;101722.81;2209495;26;2396;-66
2024/04/10 05:15:56;;;;;;;;;;;;;;;20.88;47.61;101731.44;2210505;26;2421;-66
2024/04/10 05:16:57;;;;;;;;;;;;;;;20.88;47.37;101728.56;2208532;26;2193;-67
2024/04/10 05:17:59;;;;;;;;;;;;;;;20.89;47.54;101732.97;2218145;26;2109;-66
2024/04/10 05:19:04;;;;;;;;;;;;;;;20.89;47.08;101730.09;2217978;26;2299;-66
2024/04/10 05:20:14;;;;;;;;;;;;;;;20.91;47.38;101743.84;2208321;26;2403;-66
2024/04/10 05:21:19;;;;;;;;;;;;;;;20.90;47.96;101734.44;2210318;26;2104;-66
2024/04/10 05:22:20;;;;;;;;;;;;;;;20.90;47.78;101736.59;2218373;26;2274;-66
2024/04/10 05:23:22;;;;;;;;;;;;;;;20.90;47.93;101731.56;2217705;26;2130;-67
2024/04/10 05:24:23;;;;;;;;;;;;;;;20.90;47.63;101736.59;2210164;26;2294;-66